Falmouth, Maine
Current Conditions -  °F | °C
As of 8:51 AM on Sunday 25 Jan 2015 (Local Time) from KPWM Reporting Station
Clear Clear  
Wind Chill: 27°   Ceiling: Unl
Heat Index: 35°   Visibility: 10mi
Dew Point: 25°   Wind: 12mph
Humidity: 67%   Direction: 230°SW
Pressure: 29.43"   Gusts: NA
Location:  43.73°N, 70.24°W
Report Text: KPWM 251351Z 23010KT 10SM CLR 02/M04 A2943 RMK AO2 SLP967 T00171039 $
Loading
Personal Weather Stations






























Interactive Weather Map New forecast layout! Learn more

10-Day Weather Forecast

Advertisements
Track Severe Weather on mobile